Time;durP1;ratioP1;P1;durP2;ratioP2;P2;SDS_P1;SDS_P2;PMS_P1;PMS_P2;Temp;Humidity;BMP_temperature;BMP_pressure;BME280_temperature;BME280_humidity;BME280_pressure;Samples;Min_cycle;Max_cycle;Signal;HPM_P1;HPM_P2
2021/08/16 00:00:58;;;;;;;16.92;8.89;;;;;;;;;;361779;148;857346;-59
2021/08/16 00:01:59;;;;;;;21.24;9.51;;;;;;;;;;362174;148;857993;-59
2021/08/16 00:03:01;;;;;;;17.66;9.19;;;;;;;;;;361565;147;867297;-58
2021/08/16 00:04:03;;;;;;;14.89;8.98;;;;;;;;;;360592;148;859115;-59
2021/08/16 00:05:05;;;;;;;14.13;8.51;;;;;;;;;;359988;148;858653;-59
2021/08/16 00:06:08;;;;;;;11.94;8.38;;;;;;;;;;358679;148;857446;-59
2021/08/16 00:07:09;;;;;;;15.07;8.75;;;;;;;;;;361126;147;858085;-59
2021/08/16 00:08:11;;;;;;;19.57;9.14;;;;;;;;;;360513;147;858117;-59
2021/08/16 00:09:12;;;;;;;17.37;8.64;;;;;;;;;;357971;148;857216;-59
2021/08/16 00:10:16;;;;;;;18.96;9.24;;;;;;;;;;358059;148;857237;-59
2021/08/16 00:11:17;;;;;;;16.12;8.91;;;;;;;;;;359823;148;857419;-60
2021/08/16 00:12:19;;;;;;;14.29;9.25;;;;;;;;;;358376;147;864922;-59
2021/08/16 00:13:24;;;;;;;15.58;8.67;;;;;;;;;;362493;148;859925;-59
2021/08/16 00:14:24;;;;;;;15.66;8.61;;;;;;;;;;360399;147;857944;-58
2021/08/16 00:15:25;;;;;;;12.49;9.04;;;;;;;;;;361959;147;858984;-59
2021/08/16 00:16:32;;;;;;;13.16;8.73;;;;;;;;;;359158;148;865489;-59
2021/08/16 00:17:33;;;;;;;16.50;8.94;;;;;;;;;;362690;148;858643;-58
2021/08/16 00:18:35;;;;;;;16.00;8.65;;;;;;;;;;362444;147;857753;-59
2021/08/16 00:19:37;;;;;;;16.38;8.94;;;;;;;;;;358891;147;864954;-60
2021/08/16 00:20:38;;;;;;;16.44;8.70;;;;;;;;;;357590;148;857690;-59
2021/08/16 00:21:40;;;;;;;18.09;9.06;;;;;;;;;;361056;147;864949;-60
2021/08/16 00:23:01;;;;;;;13.56;8.69;;;;;;;;;;361415;144;857266;-59
2021/08/16 00:24:03;;;;;;;15.98;8.56;;;;;;;;;;360271;147;858273;-59
2021/08/16 00:25:05;;;;;;;16.43;9.54;;;;;;;;;;360611;147;857870;-59
2021/08/16 00:26:07;;;;;;;16.83;9.16;;;;;;;;;;359825;147;858212;-59
2021/08/16 00:27:09;;;;;;;15.84;8.77;;;;;;;;;;357611;150;858476;-59
2021/08/16 00:28:10;;;;;;;16.09;8.94;;;;;;;;;;355868;150;857130;-58
2021/08/16 00:29:12;;;;;;;14.78;8.39;;;;;;;;;;358202;148;857276;-59
2021/08/16 00:30:14;;;;;;;19.25;8.77;;;;;;;;;;356570;148;857187;-59
2021/08/16 00:31:16;;;;;;;16.19;9.39;;;;;;;;;;358354;150;857675;-60
2021/08/16 00:32:18;;;;;;;15.10;8.82;;;;;;;;;;358697;148;864946;-59
2021/08/16 00:33:19;;;;;;;15.09;8.81;;;;;;;;;;358498;147;857432;-58
2021/08/16 00:34:21;;;;;;;17.48;8.48;;;;;;;;;;358351;150;857220;-58
2021/08/16 00:35:22;;;;;;;13.61;8.58;;;;;;;;;;357589;150;857280;-58
2021/08/16 00:36:24;;;;;;;13.09;8.89;;;;;;;;;;359584;147;859020;-59
2021/08/16 00:37:26;;;;;;;15.97;8.99;;;;;;;;;;358575;147;859054;-57
2021/08/16 00:38:27;;;;;;;16.09;8.26;;;;;;;;;;357853;150;858078;-59
2021/08/16 00:39:29;;;;;;;17.44;8.42;;;;;;;;;;352289;150;865041;-58
2021/08/16 00:40:31;;;;;;;20.35;9.53;;;;;;;;;;353720;150;857289;-59
2021/08/16 00:41:33;;;;;;;19.74;9.51;;;;;;;;;;346309;154;857218;-59
2021/08/16 00:42:35;;;;;;;21.64;10.59;;;;;;;;;;347635;152;864570;-58
2021/08/16 00:43:37;;;;;;;20.24;9.89;;;;;;;;;;351790;150;857762;-59
2021/08/16 00:44:38;;;;;;;18.18;9.09;;;;;;;;;;346931;152;866414;-59
2021/08/16 00:45:40;;;;;;;20.77;9.21;;;;;;;;;;347759;152;859025;-59
2021/08/16 00:46:42;;;;;;;17.68;8.65;;;;;;;;;;346196;153;858595;-58
2021/08/16 00:47:43;;;;;;;20.65;9.35;;;;;;;;;;351396;150;859156;-59
2021/08/16 00:48:45;;;;;;;19.22;8.90;;;;;;;;;;350664;153;860797;-59
2021/08/16 00:49:47;;;;;;;18.94;9.57;;;;;;;;;;352359;150;858614;-59
2021/08/16 00:50:49;;;;;;;16.45;8.98;;;;;;;;;;352548;151;857912;-58
2021/08/16 00:51:51;;;;;;;14.26;8.73;;;;;;;;;;352772;150;859038;-59
2021/08/16 00:52:53;;;;;;;14.90;9.37;;;;;;;;;;352128;150;865597;-58
2021/08/16 00:53:54;;;;;;;17.09;9.18;;;;;;;;;;354439;150;859195;-58
2021/08/16 00:54:56;;;;;;;16.27;8.35;;;;;;;;;;352423;150;857314;-58
2021/08/16 00:55:58;;;;;;;18.97;9.55;;;;;;;;;;352251;151;857302;-59
2021/08/16 00:57:01;;;;;;;16.27;8.61;;;;;;;;;;352252;150;857365;-59
2021/08/16 00:58:03;;;;;;;14.43;8.61;;;;;;;;;;353641;150;857372;-58
2021/08/16 00:59:11;;;;;;;14.85;8.71;;;;;;;;;;352745;150;859196;-58
2021/08/16 01:00:14;;;;;;;13.51;9.00;;;;;;;;;;354843;150;858090;-59
2021/08/16 01:01:16;;;;;;;16.95;8.77;;;;;;;;;;352657;150;858956;-57
2021/08/16 01:02:17;;;;;;;17.61;8.78;;;;;;;;;;353255;150;861525;-59
2021/08/16 01:03:19;;;;;;;11.91;8.26;;;;;;;;;;347169;152;857173;-59
2021/08/16 01:04:20;;;;;;;17.58;8.62;;;;;;;;;;347829;153;857226;-61
2021/08/16 01:05:22;;;;;;;16.53;9.74;;;;;;;;;;351667;150;858657;-59
2021/08/16 01:06:25;;;;;;;15.13;8.79;;;;;;;;;;352878;150;857786;-58
2021/08/16 01:07:26;;;;;;;17.03;9.76;;;;;;;;;;345847;152;865098;-59
2021/08/16 01:08:28;;;;;;;15.26;8.61;;;;;;;;;;352343;150;857322;-59
2021/08/16 01:09:29;;;;;;;15.19;8.76;;;;;;;;;;351919;150;858911;-59
2021/08/16 01:10:32;;;;;;;15.34;9.23;;;;;;;;;;352985;150;858090;-58
2021/08/16 01:11:34;;;;;;;18.32;9.77;;;;;;;;;;349381;150;859593;-59
2021/08/16 01:12:36;;;;;;;16.32;9.19;;;;;;;;;;352535;150;865091;-59
2021/08/16 01:13:37;;;;;;;16.25;9.52;;;;;;;;;;351997;150;859701;-59
2021/08/16 01:14:39;;;;;;;15.48;9.31;;;;;;;;;;352214;150;859122;-58
2021/08/16 01:15:42;;;;;;;17.95;9.86;;;;;;;;;;351895;151;858549;-59
2021/08/16 01:16:45;;;;;;;17.39;9.59;;;;;;;;;;350682;150;859684;-59
2021/08/16 01:17:47;;;;;;;17.80;9.20;;;;;;;;;;346735;152;864981;-58
2021/08/16 01:18:48;;;;;;;23.80;9.31;;;;;;;;;;346759;152;857269;-59
2021/08/16 01:19:50;;;;;;;15.66;9.31;;;;;;;;;;351271;151;858734;-58
2021/08/16 01:20:52;;;;;;;14.08;8.65;;;;;;;;;;352725;150;859248;-59
2021/08/16 01:21:54;;;;;;;14.40;9.56;;;;;;;;;;352954;150;857890;-58
2021/08/16 01:22:56;;;;;;;14.91;9.14;;;;;;;;;;352868;150;858376;-59
2021/08/16 01:23:58;;;;;;;16.65;9.37;;;;;;;;;;349510;150;857236;-59
2021/08/16 01:25:00;;;;;;;17.59;9.24;;;;;;;;;;347536;154;865617;-59
2021/08/16 01:26:02;;;;;;;13.19;9.37;;;;;;;;;;348401;152;857809;-58
2021/08/16 01:27:05;;;;;;;13.86;9.28;;;;;;;;;;349015;152;857506;-58
2021/08/16 01:28:07;;;;;;;15.21;8.92;;;;;;;;;;346875;153;865010;-57
2021/08/16 01:29:15;;;;;;;13.84;9.01;;;;;;;;;;348551;152;866846;-59
2021/08/16 01:30:18;;;;;;;19.98;9.33;;;;;;;;;;347098;153;864911;-59
2021/08/16 01:31:19;;;;;;;13.88;8.85;;;;;;;;;;346886;153;857717;-59
2021/08/16 01:32:21;;;;;;;15.03;9.02;;;;;;;;;;348480;154;857270;-58
2021/08/16 01:33:23;;;;;;;14.79;8.85;;;;;;;;;;348151;153;859459;-59
2021/08/16 01:34:25;;;;;;;13.84;8.99;;;;;;;;;;348335;153;860617;-59
2021/08/16 01:35:26;;;;;;;14.70;9.36;;;;;;;;;;347158;153;864944;-59
2021/08/16 01:36:28;;;;;;;14.37;9.17;;;;;;;;;;348524;153;857314;-58
2021/08/16 01:37:30;;;;;;;16.07;9.58;;;;;;;;;;348738;152;857201;-59
2021/08/16 01:38:33;;;;;;;15.55;9.74;;;;;;;;;;346339;153;857235;-59
2021/08/16 01:39:34;;;;;;;13.96;8.67;;;;;;;;;;347580;153;857330;-58
2021/08/16 01:40:37;;;;;;;16.78;9.11;;;;;;;;;;346736;153;864968;-58
2021/08/16 01:41:38;;;;;;;14.45;9.93;;;;;;;;;;347931;152;857767;-58
2021/08/16 01:42:40;;;;;;;14.53;9.59;;;;;;;;;;350287;153;866064;-58
2021/08/16 01:43:42;;;;;;;15.35;9.16;;;;;;;;;;348080;153;857491;-58
2021/08/16 01:44:44;;;;;;;16.04;9.18;;;;;;;;;;348223;152;868014;-58
2021/08/16 01:45:45;;;;;;;14.77;9.14;;;;;;;;;;347122;152;859855;-58
2021/08/16 01:46:48;;;;;;;16.41;9.87;;;;;;;;;;346966;154;858584;-58
2021/08/16 01:47:49;;;;;;;15.01;8.84;;;;;;;;;;346085;152;858638;-59
2021/08/16 01:48:51;;;;;;;21.16;9.74;;;;;;;;;;348272;152;864867;-59
2021/08/16 01:49:53;;;;;;;13.11;8.52;;;;;;;;;;346879;152;857999;-59
2021/08/16 01:50:55;;;;;;;15.21;7.77;;;;;;;;;;347259;153;864980;-58
2021/08/16 01:51:57;;;;;;;12.99;8.29;;;;;;;;;;347996;152;859042;-59
2021/08/16 01:52:58;;;;;;;15.51;9.66;;;;;;;;;;347575;152;859890;-58
2021/08/16 01:54:00;;;;;;;15.07;9.60;;;;;;;;;;346081;154;859458;-59
2021/08/16 01:55:01;;;;;;;15.41;9.77;;;;;;;;;;347946;152;857871;-59
2021/08/16 01:56:03;;;;;;;15.39;9.44;;;;;;;;;;347844;153;857609;-58
2021/08/16 01:57:05;;;;;;;13.53;9.29;;;;;;;;;;346592;155;865543;-59
2021/08/16 01:58:07;;;;;;;17.47;9.59;;;;;;;;;;349070;152;866516;-58
2021/08/16 01:59:09;;;;;;;14.06;9.30;;;;;;;;;;347368;152;867220;-59
2021/08/16 02:00:11;;;;;;;18.20;10.63;;;;;;;;;;346398;152;857372;-58
2021/08/16 02:01:13;;;;;;;15.39;9.91;;;;;;;;;;348532;154;857757;-58
2021/08/16 02:02:14;;;;;;;17.54;10.31;;;;;;;;;;348614;152;857437;-58
2021/08/16 02:03:16;;;;;;;21.27;9.91;;;;;;;;;;347146;152;866791;-59
2021/08/16 02:04:18;;;;;;;14.89;9.84;;;;;;;;;;346018;155;857119;-58
2021/08/16 02:05:19;;;;;;;16.90;10.19;;;;;;;;;;348307;153;857334;-59
2021/08/16 02:06:21;;;;;;;14.57;10.06;;;;;;;;;;348075;153;858767;-58
2021/08/16 02:07:23;;;;;;;15.26;9.77;;;;;;;;;;345874;153;859890;-58
2021/08/16 02:08:24;;;;;;;16.35;10.12;;;;;;;;;;346101;154;865021;-59
2021/08/16 02:09:26;;;;;;;15.31;9.29;;;;;;;;;;348255;152;857394;-58
2021/08/16 02:10:28;;;;;;;13.47;9.49;;;;;;;;;;347256;152;857424;-58
2021/08/16 02:11:30;;;;;;;16.06;9.75;;;;;;;;;;348329;153;857194;-59
2021/08/16 02:12:31;;;;;;;13.64;9.39;;;;;;;;;;347421;154;857204;-59
2021/08/16 02:13:33;;;;;;;18.59;9.83;;;;;;;;;;346047;152;857147;-59
2021/08/16 02:14:34;;;;;;;17.75;9.53;;;;;;;;;;347526;153;857419;-58
2021/08/16 02:15:39;;;;;;;14.82;10.04;;;;;;;;;;345999;154;857326;-60
2021/08/16 02:16:41;;;;;;;15.86;9.64;;;;;;;;;;344579;153;860462;-59
2021/08/16 02:17:43;;;;;;;16.91;9.66;;;;;;;;;;348580;153;859237;-59
2021/08/16 02:18:44;;;;;;;16.92;9.55;;;;;;;;;;347914;153;857378;-58
2021/08/16 02:19:47;;;;;;;14.01;9.74;;;;;;;;;;348394;152;859015;-59
2021/08/16 02:20:51;;;;;;;16.58;9.62;;;;;;;;;;347805;152;858179;-59
2021/08/16 02:21:52;;;;;;;16.80;9.89;;;;;;;;;;347580;153;865625;-58
2021/08/16 02:22:54;;;;;;;17.76;9.84;;;;;;;;;;348505;154;857340;-59
2021/08/16 02:23:55;;;;;;;15.04;9.62;;;;;;;;;;348500;153;857373;-59
2021/08/16 02:24:57;;;;;;;16.79;9.78;;;;;;;;;;350901;152;857227;-59
2021/08/16 02:25:58;;;;;;;15.14;10.00;;;;;;;;;;351033;150;859081;-59
2021/08/16 02:27:01;;;;;;;21.10;10.94;;;;;;;;;;350940;152;858161;-59
2021/08/16 02:28:03;;;;;;;16.59;10.29;;;;;;;;;;352506;150;866803;-59
2021/08/16 02:29:04;;;;;;;17.99;10.47;;;;;;;;;;351852;150;859839;-59
2021/08/16 02:30:07;;;;;;;17.29;9.50;;;;;;;;;;351068;150;858715;-58
2021/08/16 02:31:09;;;;;;;18.07;10.18;;;;;;;;;;351685;150;858239;-59
2021/08/16 02:32:10;;;;;;;15.53;10.07;;;;;;;;;;350570;150;857272;-59
2021/08/16 02:33:12;;;;;;;19.20;10.72;;;;;;;;;;347354;153;857183;-61
2021/08/16 02:34:14;;;;;;;19.91;9.99;;;;;;;;;;351504;150;857114;-58
2021/08/16 02:35:15;;;;;;;23.48;10.69;;;;;;;;;;351333;151;858355;-59
2021/08/16 02:36:18;;;;;;;16.67;10.65;;;;;;;;;;350739;152;857370;-58
2021/08/16 02:37:19;;;;;;;15.16;10.21;;;;;;;;;;351366;151;857329;-59
2021/08/16 02:38:21;;;;;;;15.50;9.56;;;;;;;;;;349320;151;865024;-58
2021/08/16 02:39:23;;;;;;;18.70;9.88;;;;;;;;;;350760;151;857506;-58
2021/08/16 02:40:25;;;;;;;18.07;9.81;;;;;;;;;;350774;152;858733;-58
2021/08/16 02:41:27;;;;;;;17.81;9.78;;;;;;;;;;350705;151;865868;-59
2021/08/16 02:42:28;;;;;;;16.22;9.76;;;;;;;;;;350474;151;859580;-59
2021/08/16 02:43:30;;;;;;;28.16;10.42;;;;;;;;;;350308;152;858645;-59
2021/08/16 02:44:31;;;;;;;17.72;9.79;;;;;;;;;;351122;153;858142;-59
2021/08/16 02:45:33;;;;;;;13.89;9.51;;;;;;;;;;351281;151;857496;-59
2021/08/16 02:46:36;;;;;;;16.07;9.85;;;;;;;;;;352474;150;857313;-59
2021/08/16 02:47:38;;;;;;;17.49;9.69;;;;;;;;;;351001;153;857917;-59
2021/08/16 02:48:39;;;;;;;18.39;10.47;;;;;;;;;;351293;151;857377;-59
2021/08/16 02:49:41;;;;;;;20.11;10.65;;;;;;;;;;351297;151;857250;-59
2021/08/16 02:50:45;;;;;;;17.86;10.16;;;;;;;;;;350907;151;857291;-58
2021/08/16 02:51:46;;;;;;;16.45;10.50;;;;;;;;;;350795;153;859823;-58
2021/08/16 02:52:48;;;;;;;16.20;9.95;;;;;;;;;;350548;151;857246;-59
2021/08/16 02:53:50;;;;;;;18.52;10.15;;;;;;;;;;351435;150;857222;-59
2021/08/16 02:54:51;;;;;;;16.77;9.70;;;;;;;;;;350630;153;857207;-58
2021/08/16 02:55:53;;;;;;;15.59;10.03;;;;;;;;;;351587;151;858437;-57
2021/08/16 02:56:55;;;;;;;14.83;9.76;;;;;;;;;;349862;151;866815;-59
2021/08/16 02:57:56;;;;;;;17.28;10.24;;;;;;;;;;351180;152;857282;-58
2021/08/16 02:58:58;;;;;;;16.44;9.56;;;;;;;;;;350296;151;859194;-57
2021/08/16 02:59:59;;;;;;;19.70;10.39;;;;;;;;;;350297;151;859606;-59
2021/08/16 03:01:01;;;;;;;21.21;10.44;;;;;;;;;;350861;151;858237;-59
2021/08/16 03:02:03;;;;;;;15.86;9.64;;;;;;;;;;350953;151;859032;-57
2021/08/16 03:03:04;;;;;;;20.25;10.14;;;;;;;;;;351179;150;857491;-59
2021/08/16 03:04:06;;;;;;;14.13;10.07;;;;;;;;;;351206;150;864020;-58
2021/08/16 03:05:08;;;;;;;16.04;10.05;;;;;;;;;;352733;151;857460;-59
2021/08/16 03:06:10;;;;;;;19.65;11.03;;;;;;;;;;351241;150;857758;-58
2021/08/16 03:07:12;;;;;;;17.58;10.63;;;;;;;;;;351149;151;865772;-56
2021/08/16 03:08:13;;;;;;;18.61;11.11;;;;;;;;;;351223;152;857691;-57
2021/08/16 03:09:15;;;;;;;18.01;11.20;;;;;;;;;;350957;151;857361;-58
2021/08/16 03:10:17;;;;;;;18.04;10.63;;;;;;;;;;351233;150;857134;-59
2021/08/16 03:11:19;;;;;;;16.25;10.15;;;;;;;;;;348761;152;865001;-58
2021/08/16 03:12:21;;;;;;;18.69;10.40;;;;;;;;;;351104;151;857251;-58
2021/08/16 03:13:22;;;;;;;20.04;10.74;;;;;;;;;;350943;153;858960;-60
2021/08/16 03:14:24;;;;;;;19.88;10.80;;;;;;;;;;349987;151;858196;-59
2021/08/16 03:15:26;;;;;;;17.07;10.48;;;;;;;;;;347793;150;858529;-58
2021/08/16 03:16:28;;;;;;;16.46;10.44;;;;;;;;;;351010;150;866362;-59
2021/08/16 03:17:30;;;;;;;21.29;10.91;;;;;;;;;;351066;151;865560;-58
2021/08/16 03:18:33;;;;;;;19.10;10.51;;;;;;;;;;350149;150;857304;-59
2021/08/16 03:19:34;;;;;;;16.61;10.78;;;;;;;;;;350892;151;857364;-59
2021/08/16 03:20:36;;;;;;;17.85;10.56;;;;;;;;;;350424;150;857467;-60
2021/08/16 03:21:38;;;;;;;17.86;11.24;;;;;;;;;;351518;150;857223;-60
2021/08/16 03:22:40;;;;;;;17.30;10.26;;;;;;;;;;350139;152;857740;-59
2021/08/16 03:23:41;;;;;;;17.26;11.01;;;;;;;;;;351448;151;857847;-59
2021/08/16 03:24:43;;;;;;;19.31;11.12;;;;;;;;;;350660;150;857111;-58
2021/08/16 03:25:44;;;;;;;21.79;10.99;;;;;;;;;;352106;150;859031;-59
2021/08/16 03:26:46;;;;;;;26.63;11.08;;;;;;;;;;352294;153;859676;-59
2021/08/16 03:27:48;;;;;;;18.57;11.68;;;;;;;;;;352601;150;858746;-62
2021/08/16 03:28:49;;;;;;;24.49;11.79;;;;;;;;;;351843;151;858413;-59
2021/08/16 03:29:51;;;;;;;23.69;11.43;;;;;;;;;;353965;150;857323;-60
2021/08/16 03:30:53;;;;;;;18.51;11.23;;;;;;;;;;352013;151;857294;-59
2021/08/16 03:32:00;;;;;;;21.04;11.80;;;;;;;;;;352144;150;857205;-59
2021/08/16 03:32:58;;;;;;;19.04;11.22;;;;;;;;;;353196;150;864798;-59
2021/08/16 03:34:00;;;;;;;21.23;11.95;;;;;;;;;;351896;150;858793;-57
2021/08/16 03:35:02;;;;;;;18.16;12.17;;;;;;;;;;352472;152;859323;-59
2021/08/16 03:36:03;;;;;;;23.86;11.31;;;;;;;;;;352905;150;859327;-59
2021/08/16 03:37:05;;;;;;;17.53;11.21;;;;;;;;;;352270;150;863873;-59
2021/08/16 03:38:07;;;;;;;17.81;10.91;;;;;;;;;;351843;150;866855;-58
2021/08/16 03:39:09;;;;;;;22.71;11.74;;;;;;;;;;352335;150;857472;-59
2021/08/16 03:40:11;;;;;;;17.43;10.92;;;;;;;;;;351708;150;858145;-58
2021/08/16 03:41:13;;;;;;;19.79;10.87;;;;;;;;;;354869;150;859011;-58
2021/08/16 03:42:15;;;;;;;18.10;10.70;;;;;;;;;;352066;150;857582;-58
2021/08/16 03:43:17;;;;;;;21.29;11.07;;;;;;;;;;350980;151;858695;-60
2021/08/16 03:44:19;;;;;;;18.46;10.91;;;;;;;;;;352036;151;864857;-58
2021/08/16 03:45:20;;;;;;;18.45;10.98;;;;;;;;;;352833;151;859460;-58
2021/08/16 03:46:22;;;;;;;19.41;11.66;;;;;;;;;;349787;150;858670;-59
2021/08/16 03:47:23;;;;;;;16.18;11.21;;;;;;;;;;352278;150;860431;-60
2021/08/16 03:48:25;;;;;;;20.48;12.06;;;;;;;;;;357063;150;859284;-59
2021/08/16 03:49:27;;;;;;;15.67;10.63;;;;;;;;;;352020;150;857989;-59
2021/08/16 03:50:29;;;;;;;17.91;11.24;;;;;;;;;;352553;150;857335;-60
2021/08/16 03:51:30;;;;;;;17.67;10.44;;;;;;;;;;352625;150;857120;-59
2021/08/16 03:52:32;;;;;;;21.71;11.23;;;;;;;;;;352646;150;857204;-60
2021/08/16 03:53:33;;;;;;;19.18;11.66;;;;;;;;;;353170;150;857330;-61
2021/08/16 03:54:35;;;;;;;17.47;10.33;;;;;;;;;;353183;150;866552;-61
2021/08/16 03:55:36;;;;;;;16.73;11.66;;;;;;;;;;352441;151;857285;-62
2021/08/16 03:56:39;;;;;;;25.63;11.98;;;;;;;;;;352544;151;857183;-61
2021/08/16 03:57:41;;;;;;;21.61;11.84;;;;;;;;;;351736;150;857308;-60
2021/08/16 03:58:43;;;;;;;21.66;10.90;;;;;;;;;;352012;153;857718;-62
2021/08/16 03:59:44;;;;;;;21.56;12.58;;;;;;;;;;355648;150;857283;-58
2021/08/16 04:00:48;;;;;;;21.51;11.83;;;;;;;;;;352964;150;859314;-58
2021/08/16 04:01:49;;;;;;;16.07;10.80;;;;;;;;;;351706;151;857443;-59
2021/08/16 04:02:51;;;;;;;20.40;11.84;;;;;;;;;;352304;151;865306;-58
2021/08/16 04:03:52;;;;;;;19.40;10.94;;;;;;;;;;352389;150;858304;-58
2021/08/16 04:04:54;;;;;;;16.84;11.19;;;;;;;;;;350440;151;858609;-60
2021/08/16 04:05:56;;;;;;;17.39;10.53;;;;;;;;;;352576;151;864937;-62
2021/08/16 04:06:59;;;;;;;21.53;12.13;;;;;;;;;;352707;151;857295;-60
2021/08/16 04:08:00;;;;;;;24.04;11.67;;;;;;;;;;351269;151;857359;-58
2021/08/16 04:09:02;;;;;;;19.35;11.23;;;;;;;;;;352680;150;857424;-60
2021/08/16 04:10:04;;;;;;;23.17;11.82;;;;;;;;;;352446;150;857548;-58
2021/08/16 04:11:08;;;;;;;17.21;11.59;;;;;;;;;;351983;151;867594;-58
2021/08/16 04:12:09;;;;;;;21.51;11.41;;;;;;;;;;351403;150;858740;-58
2021/08/16 04:13:11;;;;;;;21.21;11.31;;;;;;;;;;352397;151;857224;-58
2021/08/16 04:14:12;;;;;;;19.88;11.04;;;;;;;;;;352864;150;864761;-58
2021/08/16 04:15:15;;;;;;;20.79;12.13;;;;;;;;;;353044;150;857217;-57
2021/08/16 04:16:18;;;;;;;20.28;12.02;;;;;;;;;;351756;151;857245;-58
2021/08/16 04:17:20;;;;;;;23.18;11.19;;;;;;;;;;352624;150;857470;-58
2021/08/16 04:18:21;;;;;;;18.87;11.19;;;;;;;;;;353069;150;864828;-58
2021/08/16 04:19:23;;;;;;;17.96;11.33;;;;;;;;;;352410;150;857317;-59
2021/08/16 04:20:25;;;;;;;18.53;11.81;;;;;;;;;;352835;150;857326;-60
2021/08/16 04:21:26;;;;;;;22.55;11.67;;;;;;;;;;352109;150;857484;-60
2021/08/16 04:22:28;;;;;;;18.79;11.16;;;;;;;;;;351300;151;857294;-59
2021/08/16 04:23:30;;;;;;;21.99;11.15;;;;;;;;;;352870;150;858856;-59
2021/08/16 04:24:31;;;;;;;20.88;11.51;;;;;;;;;;352221;150;858249;-60
2021/08/16 04:25:33;;;;;;;23.70;12.19;;;;;;;;;;351469;150;866346;-59
2021/08/16 04:26:35;;;;;;;24.34;11.94;;;;;;;;;;351790;151;857416;-60
2021/08/16 04:27:37;;;;;;;20.47;12.10;;;;;;;;;;357274;150;857280;-60
2021/08/16 04:28:39;;;;;;;18.50;12.00;;;;;;;;;;357890;150;857834;-59
2021/08/16 04:29:40;;;;;;;19.28;11.19;;;;;;;;;;352445;150;858304;-60
2021/08/16 04:30:45;;;;;;;19.37;11.99;;;;;;;;;;354033;150;858007;-60
2021/08/16 04:31:47;;;;;;;20.42;11.76;;;;;;;;;;354850;150;857278;-59
2021/08/16 04:32:49;;;;;;;21.60;11.62;;;;;;;;;;351841;150;857230;-59
2021/08/16 04:33:50;;;;;;;19.29;12.13;;;;;;;;;;351572;150;857370;-59
2021/08/16 04:34:52;;;;;;;23.31;11.73;;;;;;;;;;356412;149;857316;-60
2021/08/16 04:35:53;;;;;;;19.51;11.36;;;;;;;;;;350654;150;859059;-60
2021/08/16 04:36:57;;;;;;;18.97;11.45;;;;;;;;;;347092;152;864067;-62
2021/08/16 04:37:58;;;;;;;19.75;11.45;;;;;;;;;;351767;150;857475;-58
2021/08/16 04:39:00;;;;;;;23.44;11.44;;;;;;;;;;349097;153;857391;-60
2021/08/16 04:40:02;;;;;;;19.55;11.69;;;;;;;;;;354054;150;857496;-59
2021/08/16 04:41:04;;;;;;;25.78;12.39;;;;;;;;;;352279;150;867475;-59
2021/08/16 04:42:05;;;;;;;17.90;11.01;;;;;;;;;;345831;154;857423;-59
2021/08/16 04:43:07;;;;;;;20.34;11.25;;;;;;;;;;346048;154;859077;-59
2021/08/16 04:44:08;;;;;;;23.01;11.44;;;;;;;;;;344565;153;857528;-59
2021/08/16 04:45:10;;;;;;;24.34;11.30;;;;;;;;;;352421;150;859003;-59
2021/08/16 04:46:13;;;;;;;27.83;11.71;;;;;;;;;;351645;150;857220;-60
2021/08/16 04:47:14;;;;;;;22.67;10.81;;;;;;;;;;351597;150;864965;-59
2021/08/16 04:48:16;;;;;;;32.76;10.94;;;;;;;;;;352551;149;866215;-59
2021/08/16 04:49:18;;;;;;;25.48;11.45;;;;;;;;;;349296;153;859577;-59
2021/08/16 04:50:20;;;;;;;30.08;10.91;;;;;;;;;;350127;150;864828;-59
2021/08/16 04:51:21;;;;;;;19.11;10.68;;;;;;;;;;350278;150;859129;-59
2021/08/16 04:52:23;;;;;;;17.22;10.77;;;;;;;;;;352625;149;865357;-59
2021/08/16 04:53:25;;;;;;;17.71;11.15;;;;;;;;;;350939;150;857438;-60
2021/08/16 04:54:26;;;;;;;19.69;11.14;;;;;;;;;;351500;150;857442;-58
2021/08/16 04:55:28;;;;;;;19.66;11.49;;;;;;;;;;351793;150;857397;-60
2021/08/16 04:56:31;;;;;;;20.07;10.76;;;;;;;;;;352236;151;857294;-59
2021/08/16 04:57:33;;;;;;;17.85;11.32;;;;;;;;;;352289;151;857303;-59
2021/08/16 04:58:35;;;;;;;25.07;10.74;;;;;;;;;;353233;150;857405;-59
2021/08/16 04:59:36;;;;;;;20.89;11.59;;;;;;;;;;352803;150;857330;-60
2021/08/16 05:00:40;;;;;;;18.62;10.39;;;;;;;;;;353725;150;857337;-60
2021/08/16 05:01:42;;;;;;;20.25;10.35;;;;;;;;;;352642;150;857370;-60
2021/08/16 05:02:44;;;;;;;15.49;10.67;;;;;;;;;;352949;150;868112;-60
2021/08/16 05:03:45;;;;;;;21.77;10.91;;;;;;;;;;352445;150;857326;-59
2021/08/16 05:04:49;;;;;;;15.71;10.35;;;;;;;;;;353734;150;859897;-60
2021/08/16 05:05:54;;;;;;;17.79;10.43;;;;;;;;;;352913;150;859620;-60
2021/08/16 05:06:56;;;;;;;16.67;9.99;;;;;;;;;;351931;153;857320;-60
2021/08/16 05:07:58;;;;;;;15.96;10.16;;;;;;;;;;352283;153;857451;-60
2021/08/16 05:09:00;;;;;;;16.51;10.83;;;;;;;;;;352625;150;865127;-60
2021/08/16 05:10:03;;;;;;;19.15;11.13;;;;;;;;;;352969;150;857367;-59
2021/08/16 05:11:04;;;;;;;16.65;10.27;;;;;;;;;;354196;150;857474;-59
2021/08/16 05:12:06;;;;;;;24.32;10.81;;;;;;;;;;358675;150;858301;-60
2021/08/16 05:13:08;;;;;;;17.71;10.12;;;;;;;;;;352496;150;857463;-60
2021/08/16 05:14:09;;;;;;;16.38;10.25;;;;;;;;;;351631;152;858228;-59
2021/08/16 05:15:11;;;;;;;17.61;10.37;;;;;;;;;;356720;150;857391;-59
2021/08/16 05:16:14;;;;;;;16.03;9.89;;;;;;;;;;354256;150;857221;-59
2021/08/16 05:17:16;;;;;;;18.47;10.71;;;;;;;;;;352203;150;857230;-59
2021/08/16 05:18:18;;;;;;;21.03;11.13;;;;;;;;;;352247;150;858773;-60
2021/08/16 05:19:19;;;;;;;15.90;10.05;;;;;;;;;;351970;152;857701;-60
2021/08/16 05:20:22;;;;;;;16.55;10.08;;;;;;;;;;352208;150;865011;-60
2021/08/16 05:21:24;;;;;;;17.13;10.03;;;;;;;;;;352396;151;857495;-59
2021/08/16 05:22:25;;;;;;;18.24;10.11;;;;;;;;;;349892;153;857300;-60
2021/08/16 05:23:27;;;;;;;19.25;9.61;;;;;;;;;;352135;150;857425;-59
2021/08/16 05:24:28;;;;;;;16.24;10.59;;;;;;;;;;350030;151;857438;-60
2021/08/16 05:25:30;;;;;;;15.64;10.34;;;;;;;;;;352061;153;857318;-60
2021/08/16 05:26:33;;;;;;;22.14;10.39;;;;;;;;;;345355;155;858850;-60
2021/08/16 05:27:35;;;;;;;18.36;9.36;;;;;;;;;;351796;150;859529;-59
2021/08/16 05:28:36;;;;;;;18.87;10.69;;;;;;;;;;345523;153;858989;-60
2021/08/16 05:29:38;;;;;;;18.61;10.31;;;;;;;;;;351006;153;857503;-60
2021/08/16 05:30:40;;;;;;;17.34;10.09;;;;;;;;;;352614;150;857397;-60
2021/08/16 05:31:42;;;;;;;18.69;10.31;;;;;;;;;;351407;151;864880;-60
2021/08/16 05:32:43;;;;;;;21.84;9.49;;;;;;;;;;351658;153;857338;-60
2021/08/16 05:33:45;;;;;;;18.11;9.66;;;;;;;;;;352088;152;857320;-60
2021/08/16 05:34:46;;;;;;;16.93;9.84;;;;;;;;;;352028;150;857395;-59
2021/08/16 05:35:48;;;;;;;16.40;10.04;;;;;;;;;;353209;150;859458;-59
2021/08/16 05:36:50;;;;;;;19.37;9.67;;;;;;;;;;352259;153;858330;-60
2021/08/16 05:37:51;;;;;;;20.34;10.53;;;;;;;;;;347246;152;857247;-60
2021/08/16 05:38:53;;;;;;;16.96;10.01;;;;;;;;;;347556;153;857379;-60
2021/08/16 05:39:54;;;;;;;16.96;9.94;;;;;;;;;;351310;153;857415;-60
2021/08/16 05:40:56;;;;;;;17.95;9.87;;;;;;;;;;351811;150;857347;-60
2021/08/16 05:41:59;;;;;;;20.59;11.26;;;;;;;;;;351366;151;857473;-60
2021/08/16 05:43:00;;;;;;;16.33;10.48;;;;;;;;;;345103;156;859102;-60
2021/08/16 05:44:02;;;;;;;17.25;10.36;;;;;;;;;;350085;150;857424;-59
2021/08/16 05:45:04;;;;;;;22.68;10.44;;;;;;;;;;345876;152;859806;-60
2021/08/16 05:46:06;;;;;;;19.17;11.09;;;;;;;;;;346633;153;863932;-59
2021/08/16 05:47:08;;;;;;;19.96;10.11;;;;;;;;;;351543;153;865770;-60
2021/08/16 05:48:09;;;;;;;18.54;10.46;;;;;;;;;;351848;150;857254;-60
2021/08/16 05:49:11;;;;;;;20.66;10.74;;;;;;;;;;351553;150;857366;-60
2021/08/16 05:50:13;;;;;;;18.44;10.43;;;;;;;;;;359022;150;858881;-60
2021/08/16 05:51:14;;;;;;;22.40;10.79;;;;;;;;;;359396;150;858889;-60
2021/08/16 05:52:16;;;;;;;25.87;10.68;;;;;;;;;;352510;150;857829;-59
2021/08/16 05:53:18;;;;;;;19.79;9.87;;;;;;;;;;352428;149;859437;-60
2021/08/16 05:54:19;;;;;;;15.53;10.04;;;;;;;;;;354293;150;858383;-59
2021/08/16 05:55:21;;;;;;;16.33;9.96;;;;;;;;;;352119;150;859350;-60
2021/08/16 05:56:24;;;;;;;13.64;9.40;;;;;;;;;;351313;150;859857;-62
2021/08/16 05:57:27;;;;;;;15.90;10.11;;;;;;;;;;350741;152;864985;-60
2021/08/16 05:58:28;;;;;;;18.95;9.75;;;;;;;;;;352515;150;858498;-61